Time;durP1;ratioP1;P1;durP2;ratioP2;P2;SDS_P1;SDS_P2;PMS_P1;PMS_P2;Temp;Humidity;BMP_temperature;BMP_pressure;BME280_temperature;BME280_humidity;BME280_pressure;Samples;Min_cycle;Max_cycle;Signal;HPM_P1;HPM_P2
2021/03/29 00:01:35;;;;;;;20.23;10.47;;;;;;;;;;5011840;28;20046;-55
2021/03/29 00:04:01;;;;;;;23.33;11.00;;;;;;;;;;5011096;28;20028;-55
2021/03/29 00:06:27;;;;;;;21.70;9.93;;;;;;;;;;5011454;28;20022;-55
2021/03/29 00:08:54;;;;;;;22.90;10.67;;;;;;;;;;5012250;28;20030;-55
2021/03/29 00:11:20;;;;;;;19.10;8.20;;;;;;;;;;5012278;28;20041;-55
2021/03/29 00:13:46;;;;;;;17.55;8.77;;;;;;;;;;5011908;28;20025;-55
2021/03/29 00:16:12;;;;;;;18.23;8.80;;;;;;;;;;5010838;28;20399;-55
2021/03/29 00:18:37;;;;;;;22.55;8.00;;;;;;;;;;5009672;28;20323;-57
2021/03/29 00:21:06;;;;;;;16.50;8.03;;;;;;;;;;5026624;28;20176;-57
2021/03/29 00:23:32;;;;;;;17.15;7.30;;;;;;;;;;5011048;28;20097;-56
2021/03/29 00:25:58;;;;;;;21.60;8.43;;;;;;;;;;5010285;28;20436;-57
2021/03/29 00:28:23;;;;;;;16.15;7.38;;;;;;;;;;5011166;28;20597;-57
2021/03/29 00:30:49;;;;;;;20.97;6.97;;;;;;;;;;5011886;28;20034;-58
2021/03/29 00:33:15;;;;;;;19.13;7.50;;;;;;;;;;5011349;28;20025;-57
2021/03/29 00:35:42;;;;;;;21.20;7.57;;;;;;;;;;5012653;28;20072;-58
2021/03/29 00:38:09;;;;;;;17.48;7.20;;;;;;;;;;5011486;28;20478;-57
2021/03/29 00:40:35;;;;;;;26.00;7.95;;;;;;;;;;5011642;28;20057;-57
2021/03/29 00:43:06;;;;;;;22.60;7.03;;;;;;;;;;5010751;28;20434;-57
2021/03/29 00:45:32;;;;;;;12.02;5.93;;;;;;;;;;5011322;28;20045;-57
2021/03/29 00:47:58;;;;;;;26.95;7.13;;;;;;;;;;5011669;28;20056;-56
2021/03/29 00:50:29;;;;;;;18.27;8.60;;;;;;;;;;5011736;28;20045;-56
2021/03/29 00:52:58;;;;;;;16.10;6.25;;;;;;;;;;5010388;28;20402;-56
2021/03/29 00:55:24;;;;;;;18.63;6.47;;;;;;;;;;5010603;28;20057;-56
2021/03/29 00:57:50;;;;;;;20.25;5.70;;;;;;;;;;5010169;28;20053;-56
2021/03/29 01:00:23;;;;;;;13.70;5.82;;;;;;;;;;5011709;28;20036;-56
2021/03/29 01:02:48;;;;;;;17.83;6.07;;;;;;;;;;5010858;28;20033;-57
2021/03/29 01:05:18;;;;;;;15.87;7.10;;;;;;;;;;5011506;28;20182;-58
2021/03/29 01:07:46;;;;;;;16.33;5.82;;;;;;;;;;5011336;28;20064;-57
2021/03/29 01:10:11;;;;;;;21.02;6.78;;;;;;;;;;5011755;28;20096;-58
2021/03/29 01:12:37;;;;;;;17.13;6.10;;;;;;;;;;5010752;28;20546;-56
2021/03/29 01:15:03;;;;;;;12.75;5.90;;;;;;;;;;5011605;28;20026;-57
2021/03/29 01:17:31;;;;;;;21.10;6.38;;;;;;;;;;5011011;28;20029;-55
2021/03/29 01:20:02;;;;;;;17.75;6.78;;;;;;;;;;5014915;28;20177;-56
2021/03/29 01:22:48;;;;;;;15.88;6.28;;;;;;;;;;5015226;28;20103;-56
2021/03/29 01:25:32;;;;;;;16.20;6.30;;;;;;;;;;5014610;28;20061;-55
2021/03/29 01:28:01;;;;;;;17.48;5.18;;;;;;;;;;5015196;28;20075;-58
2021/03/29 01:30:28;;;;;;;19.23;5.32;;;;;;;;;;5015055;28;20171;-57
2021/03/29 01:32:53;;;;;;;;;;;;;;;;;;5015417;28;20029;-56
2021/03/29 01:35:21;;;;;;;17.13;5.93;;;;;;;;;;5014877;28;19905;-56
2021/03/29 01:37:47;;;;;;;20.20;6.15;;;;;;;;;;5014274;28;20077;-57
2021/03/29 01:40:14;;;;;;;11.87;4.93;;;;;;;;;;5015315;28;20061;-57
2021/03/29 01:42:40;;;;;;;11.13;5.20;;;;;;;;;;5014341;28;20255;-57
2021/03/29 01:45:07;;;;;;;21.92;5.97;;;;;;;;;;5013707;28;20084;-56
2021/03/29 01:47:32;;;;;;;18.88;5.05;;;;;;;;;;5014078;28;20059;-57
2021/03/29 01:49:58;;;;;;;14.00;5.70;;;;;;;;;;5013611;28;20053;-56
2021/03/29 01:52:23;;;;;;;19.20;6.00;;;;;;;;;;5014801;28;20036;-56
2021/03/29 01:54:49;;;;;;;17.17;6.87;;;;;;;;;;5014223;28;20042;-55
2021/03/29 01:57:14;;;;;;;14.32;5.93;;;;;;;;;;5013357;28;20347;-56
2021/03/29 01:59:40;;;;;;;21.67;5.63;;;;;;;;;;5012718;28;20034;-56
2021/03/29 02:02:06;;;;;;;17.10;7.43;;;;;;;;;;5013065;28;20025;-55
2021/03/29 02:04:32;;;;;;;14.27;5.78;;;;;;;;;;4996769;28;20026;-56
2021/03/29 02:06:58;;;;;;;17.52;6.97;;;;;;;;;;5014570;28;20050;-56
2021/03/29 02:09:24;;;;;;;15.63;6.50;;;;;;;;;;5012772;28;20394;-57
2021/03/29 02:11:50;;;;;;;20.08;7.90;;;;;;;;;;5013924;28;20037;-57
2021/03/29 02:14:16;;;;;;;18.87;6.87;;;;;;;;;;5014606;28;20021;-57
2021/03/29 02:16:41;;;;;;;16.23;5.70;;;;;;;;;;5013421;28;20032;-57
2021/03/29 02:19:07;;;;;;;16.73;5.67;;;;;;;;;;5012994;28;20045;-56
2021/03/29 02:21:38;;;;;;;20.90;5.28;;;;;;;;;;5013102;28;20049;-57
2021/03/29 02:24:04;;;;;;;16.15;4.10;;;;;;;;;;5014242;28;20030;-56
2021/03/29 02:26:32;;;;;;;17.60;4.60;;;;;;;;;;5012920;28;20478;-57
2021/03/29 02:28:58;;;;;;;10.95;4.45;;;;;;;;;;5013325;28;20032;-57
2021/03/29 02:31:24;;;;;;;21.10;5.20;;;;;;;;;;5012922;28;20030;-57
2021/03/29 02:33:51;;;;;;;13.80;3.92;;;;;;;;;;5012128;28;20057;-56
2021/03/29 02:36:17;;;;;;;19.80;4.72;;;;;;;;;;5014068;28;20141;-56
2021/03/29 02:38:43;;;;;;;17.38;3.72;;;;;;;;;;5012977;28;20045;-56
2021/03/29 02:41:08;;;;;;;12.77;4.13;;;;;;;;;;4996296;28;20107;-55
2021/03/29 02:43:34;;;;;;;13.20;4.30;;;;;;;;;;5013896;28;20351;-55
2021/03/29 02:46:02;;;;;;;17.02;4.30;;;;;;;;;;5028647;28;20028;-57
2021/03/29 02:48:30;;;;;;;12.32;4.00;;;;;;;;;;5013675;28;20045;-57
2021/03/29 02:50:56;;;;;;;14.13;4.80;;;;;;;;;;5013075;28;20461;-57
2021/03/29 02:53:23;;;;;;;18.23;5.43;;;;;;;;;;5013706;28;20105;-58
2021/03/29 02:55:49;;;;;;;11.68;4.88;;;;;;;;;;5013072;28;20029;-57
2021/03/29 02:58:17;;;;;;;15.25;4.15;;;;;;;;;;5013681;28;20449;-57
2021/03/29 03:00:42;;;;;;;11.10;4.10;;;;;;;;;;5011604;28;20477;-57
2021/03/29 03:03:08;;;;;;;15.47;4.37;;;;;;;;;;5013509;28;20029;-57
2021/03/29 03:05:35;;;;;;;14.00;4.68;;;;;;;;;;5013167;28;20728;-56
2021/03/29 03:08:02;;;;;;;14.15;4.10;;;;;;;;;;5012773;28;20041;-56
2021/03/29 03:10:28;;;;;;;14.57;4.28;;;;;;;;;;4995642;28;20034;-57
2021/03/29 03:12:55;;;;;;;20.20;4.93;;;;;;;;;;5012738;28;20105;-56
2021/03/29 03:15:20;;;;;;;;;;;;;;;;;;5013638;28;20033;-57
2021/03/29 03:17:46;;;;;;;10.13;4.13;;;;;;;;;;5012461;28;20289;-57
2021/03/29 03:20:12;;;;;;;14.30;5.22;;;;;;;;;;5013274;28;20160;-56
2021/03/29 03:22:48;;;;;;;10.15;4.75;;;;;;;;;;5013222;28;20026;-57
2021/03/29 03:25:36;;;;;;;16.40;4.03;;;;;;;;;;5012939;28;20049;-57
2021/03/29 03:28:01;;;;;;;;;;;;;;;;;;5012894;28;20283;-57
2021/03/29 03:30:28;;;;;;;11.03;3.93;;;;;;;;;;5013041;28;20012;-57
2021/03/29 03:32:53;;;;;;;17.23;4.78;;;;;;;;;;5011849;28;20018;-56
2021/03/29 03:35:20;;;;;;;15.80;3.97;;;;;;;;;;5012707;28;20037;-57
2021/03/29 03:37:51;;;;;;;12.82;4.55;;;;;;;;;;5012249;28;20041;-56
2021/03/29 03:40:19;;;;;;;10.63;4.10;;;;;;;;;;5028217;28;20030;-57
2021/03/29 03:42:44;;;;;;;18.85;4.47;;;;;;;;;;5011389;28;20022;-57
2021/03/29 03:45:10;;;;;;;13.55;4.30;;;;;;;;;;5012559;28;20041;-57
2021/03/29 03:47:40;;;;;;;12.23;4.35;;;;;;;;;;5012446;28;20033;-57
2021/03/29 03:50:08;;;;;;;16.80;5.25;;;;;;;;;;5011973;28;20033;-57
2021/03/29 03:52:34;;;;;;;16.52;5.22;;;;;;;;;;5011095;28;20030;-56
2021/03/29 03:55:00;;;;;;;10.88;4.75;;;;;;;;;;5012083;28;20084;-56
2021/03/29 03:57:25;;;;;;;13.50;3.93;;;;;;;;;;5012619;28;20414;-55
2021/03/29 03:59:51;;;;;;;10.50;4.13;;;;;;;;;;5011679;28;20088;-56
2021/03/29 04:02:16;;;;;;;12.47;3.73;;;;;;;;;;5012571;28;20057;-56
2021/03/29 04:04:41;;;;;;;11.57;3.97;;;;;;;;;;5012502;28;20026;-56
2021/03/29 04:07:07;;;;;;;17.37;4.77;;;;;;;;;;5027009;28;20073;-57
2021/03/29 04:09:52;;;;;;;14.87;5.20;;;;;;;;;;5012390;28;20502;-57
2021/03/29 04:12:18;;;;;;;16.23;3.63;;;;;;;;;;5011165;28;20033;-56
2021/03/29 04:14:43;;;;;;;14.63;4.10;;;;;;;;;;5012360;28;20029;-57
2021/03/29 04:17:09;;;;;;;11.23;4.00;;;;;;;;;;5011646;28;20351;-56
2021/03/29 04:19:34;;;;;;;10.37;4.00;;;;;;;;;;5012240;28;20041;-57
2021/03/29 04:21:59;;;;;;;11.80;3.73;;;;;;;;;;5011533;28;20044;-57
2021/03/29 04:24:25;;;;;;;10.93;4.00;;;;;;;;;;5012254;28;20017;-56
2021/03/29 04:26:50;;;;;;;20.70;3.83;;;;;;;;;;5011490;28;20049;-58
2021/03/29 04:29:15;;;;;;;16.57;5.10;;;;;;;;;;5012123;28;20030;-57
2021/03/29 04:31:41;;;;;;;19.77;4.13;;;;;;;;;;5010492;28;20057;-56
2021/03/29 04:34:06;;;;;;;18.03;5.17;;;;;;;;;;5011133;28;20034;-56
2021/03/29 04:36:32;;;;;;;12.77;4.53;;;;;;;;;;5010698;28;20030;-56
2021/03/29 04:38:57;;;;;;;14.63;3.53;;;;;;;;;;5011119;28;20512;-57
2021/03/29 04:41:22;;;;;;;13.43;4.17;;;;;;;;;;5011904;28;20033;-58
2021/03/29 04:43:47;;;;;;;16.60;3.37;;;;;;;;;;5011945;28;20064;-57
2021/03/29 04:46:13;;;;;;;15.43;3.23;;;;;;;;;;5010015;28;20125;-58
2021/03/29 04:48:39;;;;;;;11.93;3.50;;;;;;;;;;5011745;28;20101;-57
2021/03/29 04:51:05;;;;;;;10.27;3.50;;;;;;;;;;5011044;28;20076;-56
2021/03/29 04:53:30;;;;;;;13.83;3.50;;;;;;;;;;5013034;28;20058;-57
2021/03/29 04:55:55;;;;;;;13.03;3.63;;;;;;;;;;5013919;28;20513;-56
2021/03/29 04:58:21;;;;;;;10.33;3.47;;;;;;;;;;5015797;28;20024;-57
2021/03/29 05:00:46;;;;;;;14.33;4.53;;;;;;;;;;5015789;28;20034;-57
2021/03/29 05:03:11;;;;;;;14.53;3.80;;;;;;;;;;5014885;28;20044;-57
2021/03/29 05:05:37;;;;;;;14.83;4.60;;;;;;;;;;5015773;28;20161;-57
2021/03/29 05:08:02;;;;;;;9.13;3.43;;;;;;;;;;5013274;28;20049;-57
2021/03/29 05:10:27;;;;;;;10.93;3.70;;;;;;;;;;5015623;28;20132;-57
2021/03/29 05:12:53;;;;;;;9.40;3.50;;;;;;;;;;5015233;28;20074;-56
2021/03/29 05:15:18;;;;;;;18.40;4.00;;;;;;;;;;5015474;28;20034;-55
2021/03/29 05:17:44;;;;;;;13.40;3.50;;;;;;;;;;5015361;28;20272;-58
2021/03/29 05:20:10;;;;;;;11.10;3.90;;;;;;;;;;5014826;28;20381;-56
2021/03/29 05:22:35;;;;;;;10.95;3.30;;;;;;;;;;5015046;28;20010;-57
2021/03/29 05:25:00;;;;;;;13.27;3.97;;;;;;;;;;5029805;28;20030;-57
2021/03/29 05:27:26;;;;;;;14.10;4.07;;;;;;;;;;5015210;28;20033;-57
2021/03/29 05:29:52;;;;;;;10.73;3.70;;;;;;;;;;5013629;28;20034;-57
2021/03/29 05:32:19;;;;;;;11.48;4.00;;;;;;;;;;5013866;28;20425;-57
2021/03/29 05:34:44;;;;;;;;;;;;;;;;;;5015084;28;20018;-57
2021/03/29 05:37:09;;;;;;;15.37;3.57;;;;;;;;;;5013818;28;19984;-55
2021/03/29 05:39:35;;;;;;;8.40;3.73;;;;;;;;;;5015087;28;20498;-57
2021/03/29 05:42:01;;;;;;;13.40;3.67;;;;;;;;;;5013964;28;20474;-56
2021/03/29 05:44:27;;;;;;;12.93;3.72;;;;;;;;;;5013886;28;20026;-56
2021/03/29 05:46:52;;;;;;;12.73;3.55;;;;;;;;;;5012961;28;20029;-56
2021/03/29 05:49:18;;;;;;;11.47;3.73;;;;;;;;;;5013743;28;20064;-55
2021/03/29 05:51:44;;;;;;;14.32;4.43;;;;;;;;;;5014572;28;20041;-56
2021/03/29 05:54:10;;;;;;;14.52;3.60;;;;;;;;;;5012730;28;20033;-56
2021/03/29 05:56:39;;;;;;;12.27;3.33;;;;;;;;;;5014347;28;20370;-55
2021/03/29 05:59:15;;;;;;;10.82;3.50;;;;;;;;;;5014044;28;20029;-56
2021/03/29 06:01:51;;;;;;;14.18;3.50;;;;;;;;;;5013317;28;20093;-55
2021/03/29 06:04:36;;;;;;;12.38;3.90;;;;;;;;;;5013388;28;20038;-57
2021/03/29 06:07:09;;;;;;;14.93;4.28;;;;;;;;;;5012450;28;20459;-56
2021/03/29 06:09:34;;;;;;;14.77;4.80;;;;;;;;;;5014451;28;20034;-56
2021/03/29 06:11:59;;;;;;;10.27;3.27;;;;;;;;;;5012375;28;20076;-56
2021/03/29 06:14:29;;;;;;;17.67;4.93;;;;;;;;;;5014138;28;20101;-55
2021/03/29 06:16:58;;;;;;;11.45;3.35;;;;;;;;;;5013709;28;20437;-57
2021/03/29 06:19:41;;;;;;;14.88;4.35;;;;;;;;;;5013486;28;20026;-57
2021/03/29 06:22:10;;;;;;;14.13;4.10;;;;;;;;;;5011148;28;20021;-56
2021/03/29 06:24:58;;;;;;;14.38;3.80;;;;;;;;;;5013544;28;20049;-56
2021/03/29 06:27:25;;;;;;;14.02;3.88;;;;;;;;;;5003666;28;20048;-54
2021/03/29 06:29:50;;;;;;;;;;;;;;;;;;5013845;28;20366;-55
2021/03/29 06:32:19;;;;;;;10.50;4.20;;;;;;;;;;5012226;28;19905;-57
2021/03/29 06:34:45;;;;;;;13.95;3.47;;;;;;;;;;4993223;28;20378;-56
2021/03/29 06:37:11;;;;;;;15.30;3.63;;;;;;;;;;4994160;28;20018;-57
2021/03/29 06:39:41;;;;;;;12.20;4.30;;;;;;;;;;4994733;28;20471;-56
2021/03/29 06:42:06;;;;;;;17.83;4.22;;;;;;;;;;5008689;28;20097;-57
2021/03/29 06:44:37;;;;;;;11.50;3.67;;;;;;;;;;4994616;28;20113;-55
2021/03/29 06:47:13;;;;;;;11.35;3.72;;;;;;;;;;4994176;28;20037;-57
2021/03/29 06:49:42;;;;;;;14.07;4.25;;;;;;;;;;4992658;28;20038;-56
2021/03/29 06:52:23;;;;;;;15.07;3.70;;;;;;;;;;5008603;28;20030;-56
2021/03/29 06:54:48;;;;;;;15.75;4.05;;;;;;;;;;4993772;28;20165;-56
2021/03/29 06:57:25;;;;;;;16.30;4.70;;;;;;;;;;4993224;28;20034;-57
2021/03/29 06:59:50;;;;;;;12.63;4.10;;;;;;;;;;4993778;28;20085;-57
2021/03/29 07:02:16;;;;;;;14.07;3.87;;;;;;;;;;4993355;28;20030;-56
2021/03/29 07:04:42;;;;;;;8.45;3.33;;;;;;;;;;4992444;28;20030;-55
2021/03/29 07:07:07;;;;;;;11.63;3.80;;;;;;;;;;5003524;28;20040;-55
2021/03/29 07:09:34;;;;;;;13.17;3.63;;;;;;;;;;5012760;28;20034;-55
2021/03/29 07:12:00;;;;;;;13.90;4.22;;;;;;;;;;5019443;28;20468;-59
2021/03/29 07:14:26;;;;;;;12.00;3.63;;;;;;;;;;5020185;28;20375;-56
2021/03/29 07:16:52;;;;;;;11.15;4.00;;;;;;;;;;5019649;28;20469;-56
2021/03/29 07:19:18;;;;;;;13.98;3.63;;;;;;;;;;5021430;28;20029;-55
2021/03/29 07:21:43;;;;;;;15.50;4.33;;;;;;;;;;5020326;28;20465;-55
2021/03/29 07:24:10;;;;;;;14.47;6.23;;;;;;;;;;5020205;28;20087;-55
2021/03/29 07:26:55;;;;;;;12.30;4.03;;;;;;;;;;5022055;28;20037;-56
2021/03/29 07:29:20;;;;;;;14.45;4.18;;;;;;;;;;5017895;28;20099;-56
2021/03/29 07:31:47;;;;;;;15.23;4.77;;;;;;;;;;5032685;28;20022;-55
2021/03/29 07:34:13;;;;;;;11.05;4.05;;;;;;;;;;5030411;28;20481;-56
2021/03/29 07:36:42;;;;;;;11.87;3.40;;;;;;;;;;4994696;28;20035;-59
2021/03/29 07:39:08;;;;;;;16.88;3.92;;;;;;;;;;4993199;28;20046;-56
2021/03/29 07:41:34;;;;;;;12.48;4.22;;;;;;;;;;4993482;28;20023;-55
2021/03/29 07:44:08;;;;;;;11.77;3.75;;;;;;;;;;4993150;28;20363;-57
2021/03/29 07:46:37;;;;;;;13.50;3.47;;;;;;;;;;4993179;28;20066;-57
2021/03/29 07:49:02;;;;;;;12.88;4.03;;;;;;;;;;4987007;28;20128;-56
2021/03/29 07:51:28;;;;;;;21.50;5.17;;;;;;;;;;5010398;28;20319;-55
2021/03/29 07:53:59;;;;;;;12.43;4.10;;;;;;;;;;5012080;28;20029;-56
2021/03/29 07:56:30;;;;;;;14.15;3.80;;;;;;;;;;5012012;28;20462;-56
2021/03/29 07:58:56;;;;;;;15.77;4.40;;;;;;;;;;5041515;28;20083;-56
2021/03/29 08:01:21;;;;;;;9.07;3.50;;;;;;;;;;5019764;28;20602;-56
2021/03/29 08:03:48;;;;;;;14.43;4.30;;;;;;;;;;5021380;28;20515;-57
2021/03/29 08:06:32;;;;;;;12.95;3.65;;;;;;;;;;5021424;28;20018;-57
2021/03/29 08:08:58;;;;;;;13.48;4.03;;;;;;;;;;5020536;28;20033;-56
2021/03/29 08:11:23;;;;;;;12.20;4.00;;;;;;;;;;5020395;28;20041;-55
2021/03/29 08:13:58;;;;;;;11.27;3.87;;;;;;;;;;5020055;28;20021;-56
2021/03/29 08:16:28;;;;;;;8.60;3.65;;;;;;;;;;5014685;28;20072;-56
2021/03/29 08:21:58;;;;;;;9.97;3.07;;;;;;;;;;5004600;28;20619;-56
2021/03/29 08:24:23;;;;;;;9.77;3.30;;;;;;;;;;5011254;28;20267;-57
2021/03/29 08:26:49;;;;;;;14.93;3.93;;;;;;;;;;5010526;28;20777;-56
2021/03/29 08:29:30;;;;;;;10.10;3.55;;;;;;;;;;5009962;28;20482;-56
2021/03/29 08:32:05;;;;;;;11.00;3.30;;;;;;;;;;5012012;28;20454;-56
2021/03/29 08:34:36;;;;;;;16.23;3.73;;;;;;;;;;5008846;28;20615;-56
2021/03/29 08:37:03;;;;;;;16.63;4.10;;;;;;;;;;5025999;28;20275;-57
2021/03/29 08:39:32;;;;;;;15.87;4.47;;;;;;;;;;5010806;28;20333;-57
2021/03/29 08:41:58;;;;;;;9.77;3.53;;;;;;;;;;5010577;28;20259;-58
2021/03/29 08:44:23;;;;;;;11.47;4.40;;;;;;;;;;5011263;28;20254;-58
2021/03/29 08:46:50;;;;;;;15.00;3.93;;;;;;;;;;5011636;28;20032;-58
2021/03/29 08:49:16;;;;;;;13.43;4.27;;;;;;;;;;5008359;28;20083;-58
2021/03/29 08:51:41;;;;;;;9.18;3.80;;;;;;;;;;5011066;28;20661;-58
2021/03/29 08:54:08;;;;;;;10.30;3.67;;;;;;;;;;5012221;28;20590;-58
2021/03/29 08:56:40;;;;;;;8.10;3.63;;;;;;;;;;5010948;28;20022;-58
2021/03/29 08:59:06;;;;;;;16.07;3.20;;;;;;;;;;5011753;28;20030;-58
2021/03/29 09:01:32;;;;;;;16.25;3.72;;;;;;;;;;5011157;28;20688;-58
2021/03/29 09:04:04;;;;;;;10.00;3.57;;;;;;;;;;5010798;28;20041;-58
2021/03/29 09:06:29;;;;;;;12.23;3.50;;;;;;;;;;5025584;28;20026;-58
2021/03/29 09:08:55;;;;;;;15.57;3.63;;;;;;;;;;5011231;28;20245;-57
2021/03/29 09:11:21;;;;;;;7.88;3.35;;;;;;;;;;5010778;28;20466;-58
2021/03/29 09:13:46;;;;;;;13.63;3.13;;;;;;;;;;5011535;28;20041;-57
2021/03/29 09:16:12;;;;;;;11.23;3.55;;;;;;;;;;5011366;28;20072;-58
2021/03/29 09:18:37;;;;;;;9.27;3.27;;;;;;;;;;5010129;28;20113;-58
2021/03/29 09:21:02;;;;;;;12.73;3.27;;;;;;;;;;5009378;28;20044;-58
2021/03/29 09:23:34;;;;;;;12.07;3.53;;;;;;;;;;5018130;28;20025;-58
2021/03/29 09:26:02;;;;;;;13.37;3.57;;;;;;;;;;5031000;28;20025;-57
2021/03/29 09:30:54;;;;;;;;;;;;;;;;;;5011389;28;20014;-57
2021/03/29 09:33:20;;;;;;;9.70;3.73;;;;;;;;;;5009892;28;19959;-57
2021/03/29 09:35:46;;;;;;;12.13;4.50;;;;;;;;;;5011373;28;20080;-58
2021/03/29 09:38:12;;;;;;;13.10;3.47;;;;;;;;;;5011275;28;20381;-58
2021/03/29 09:40:37;;;;;;;10.83;3.53;;;;;;;;;;5013335;28;20030;-58
2021/03/29 09:43:03;;;;;;;7.85;3.28;;;;;;;;;;5027637;28;20033;-58
2021/03/29 09:45:30;;;;;;;17.25;4.93;;;;;;;;;;5034043;28;20087;-57
2021/03/29 09:48:02;;;;;;;13.90;3.63;;;;;;;;;;5032000;28;20104;-57
2021/03/29 09:50:30;;;;;;;12.80;4.03;;;;;;;;;;5020137;28;20095;-58
2021/03/29 09:53:07;;;;;;;13.53;4.13;;;;;;;;;;5023639;28;20056;-58
2021/03/29 09:55:42;;;;;;;8.33;3.30;;;;;;;;;;5023003;28;20022;-63
2021/03/29 09:58:29;;;;;;;9.27;2.83;;;;;;;;;;5019509;28;20105;-58
2021/03/29 10:00:56;;;;;;;11.70;3.70;;;;;;;;;;5020528;28;20092;-58
2021/03/29 10:03:22;;;;;;;11.30;2.73;;;;;;;;;;5023492;28;20060;-57
2021/03/29 10:05:48;;;;;;;11.60;4.05;;;;;;;;;;5022820;28;20102;-58
2021/03/29 10:08:30;;;;;;;11.60;3.20;;;;;;;;;;5025387;28;20021;-58
2021/03/29 10:11:02;;;;;;;7.03;2.80;;;;;;;;;;5022482;28;20447;-58
2021/03/29 10:13:32;;;;;;;11.90;3.57;;;;;;;;;;5020089;28;20117;-58
2021/03/29 10:15:58;;;;;;;7.70;3.40;;;;;;;;;;5022930;28;20021;-58
2021/03/29 10:18:23;;;;;;;;;;;;;;;;;;5023488;28;20021;-58
2021/03/29 10:20:48;;;;;;;15.93;3.30;;;;;;;;;;5023055;28;19924;-58
2021/03/29 10:23:21;;;;;;;13.13;3.47;;;;;;;;;;5025279;28;20466;-58
2021/03/29 10:26:06;;;;;;;10.50;3.23;;;;;;;;;;5019482;28;20017;-58
2021/03/29 10:28:31;;;;;;;9.77;3.13;;;;;;;;;;5002181;28;20030;-56
2021/03/29 10:30:57;;;;;;;8.43;2.35;;;;;;;;;;5017559;28;20394;-57
2021/03/29 10:33:22;;;;;;;9.50;2.88;;;;;;;;;;5021330;28;20109;-57
2021/03/29 10:35:47;;;;;;;11.35;3.10;;;;;;;;;;5023826;28;20029;-58
2021/03/29 10:38:15;;;;;;;7.07;3.03;;;;;;;;;;5023008;28;20084;-58
2021/03/29 10:40:40;;;;;;;7.70;2.70;;;;;;;;;;5021398;28;20112;-57
2021/03/29 10:43:06;;;;;;;7.47;2.90;;;;;;;;;;5024120;28;20469;-58
2021/03/29 10:45:31;;;;;;;7.90;2.47;;;;;;;;;;5022212;28;20077;-57
2021/03/29 10:47:57;;;;;;;8.30;2.70;;;;;;;;;;5024088;28;20025;-57
2021/03/29 10:50:22;;;;;;;;;;;;;;;;;;5022261;28;20045;-58
2021/03/29 10:52:48;;;;;;;5.27;2.30;;;;;;;;;;5022089;28;19932;-58
2021/03/29 10:55:14;;;;;;;9.98;2.88;;;;;;;;;;5043489;28;20060;-57
2021/03/29 10:57:39;;;;;;;;;;;;;;;;;;5023142;28;20025;-58
2021/03/29 11:00:05;;;;;;;12.60;3.60;;;;;;;;;;5022017;28;19908;-57
2021/03/29 11:02:31;;;;;;;10.53;2.57;;;;;;;;;;5018966;28;20026;-58
2021/03/29 11:04:56;;;;;;;;;;;;;;;;;;5015746;28;20035;-58
2021/03/29 11:07:21;;;;;;;13.87;3.70;;;;;;;;;;5020738;28;20040;-56
2021/03/29 11:09:46;;;;;;;;;;;;;;;;;;5022583;28;20091;-57
2021/03/29 11:12:12;;;;;;;10.33;2.57;;;;;;;;;;5022373;28;19985;-54
2021/03/29 11:14:37;;;;;;;11.32;4.22;;;;;;;;;;5020698;28;20013;-56
2021/03/29 11:17:03;;;;;;;9.32;2.75;;;;;;;;;;5021156;28;20442;-57
2021/03/29 11:19:28;;;;;;;;;;;;;;;;;;5002951;28;20042;-56
2021/03/29 11:21:54;;;;;;;9.50;2.50;;;;;;;;;;5021001;28;19909;-57
2021/03/29 11:24:19;;;;;;;;;;;;;;;;;;5022321;28;21126;-58
2021/03/29 11:26:44;;;;;;;11.00;3.30;;;;;;;;;;5010338;28;19909;-56
2021/03/29 11:29:10;;;;;;;;;;;;;;;;;;5011440;28;20072;-56
2021/03/29 11:31:40;;;;;;;13.13;3.23;;;;;;;;;;5010013;28;20349;-56
2021/03/29 11:34:06;;;;;;;7.23;2.93;;;;;;;;;;5025355;28;20493;-58
2021/03/29 11:36:31;;;;;;;;;;;;;;;;;;5009463;28;20192;-58
2021/03/29 11:38:56;;;;;;;9.23;2.57;;;;;;;;;;5009379;28;20021;-59
2021/03/29 11:41:22;;;;;;;;;;;;;;;;;;5011210;28;20065;-57
2021/03/29 11:43:48;;;;;;;8.93;2.70;;;;;;;;;;5009983;28;20316;-58
2021/03/29 11:46:13;;;;;;;9.95;2.40;;;;;;;;;;4993460;28;20537;-58
2021/03/29 11:48:39;;;;;;;11.85;3.00;;;;;;;;;;5010009;28;20034;-57
2021/03/29 11:51:04;;;;;;;11.18;2.50;;;;;;;;;;5010723;28;20123;-56
2021/03/29 11:53:30;;;;;;;8.18;2.60;;;;;;;;;;5010193;28;20041;-57
2021/03/29 11:55:57;;;;;;;8.50;3.30;;;;;;;;;;5010583;28;20350;-56
2021/03/29 11:58:22;;;;;;;9.15;2.58;;;;;;;;;;5010848;28;20049;-56
2021/03/29 12:00:57;;;;;;;10.85;3.10;;;;;;;;;;5009758;28;20165;-56
2021/03/29 12:03:30;;;;;;;8.27;3.50;;;;;;;;;;5009608;28;20029;-56
2021/03/29 12:06:00;;;;;;;11.70;4.65;;;;;;;;;;5010312;28;20115;-56
2021/03/29 12:08:36;;;;;;;6.90;3.13;;;;;;;;;;5010747;28;20027;-57
2021/03/29 12:13:46;;;;;;;11.52;3.90;;;;;;;;;;5006693;28;20058;-57
2021/03/29 12:16:12;;;;;;;8.50;3.50;;;;;;;;;;5010213;28;20407;-57
2021/03/29 12:21:07;;;;;;;11.63;3.92;;;;;;;;;;5010126;28;20026;-57
2021/03/29 12:23:33;;;;;;;8.63;3.55;;;;;;;;;;5009757;28;20082;-54
2021/03/29 12:26:00;;;;;;;12.18;3.50;;;;;;;;;;5010293;28;20029;-57
2021/03/29 12:28:30;;;;;;;6.80;2.30;;;;;;;;;;5009236;28;20021;-55
2021/03/29 12:30:56;;;;;;;5.63;2.60;;;;;;;;;;5009158;28;20046;-56
2021/03/29 12:33:22;;;;;;;10.63;3.75;;;;;;;;;;5010025;28;20022;-56
2021/03/29 12:35:47;;;;;;;8.18;2.78;;;;;;;;;;5009213;28;20547;-56
2021/03/29 12:38:13;;;;;;;12.15;3.05;;;;;;;;;;5010018;28;20053;-56
2021/03/29 12:40:43;;;;;;;8.20;3.20;;;;;;;;;;5009574;28;20462;-57
2021/03/29 12:43:12;;;;;;;11.10;3.17;;;;;;;;;;5009868;28;20049;-56
2021/03/29 12:45:39;;;;;;;16.00;3.53;;;;;;;;;;5009718;28;20402;-57
2021/03/29 12:48:09;;;;;;;7.78;2.92;;;;;;;;;;5008998;28;20057;-55
2021/03/29 12:50:35;;;;;;;15.30;3.60;;;;;;;;;;5009056;28;20026;-56
2021/03/29 12:53:01;;;;;;;9.10;3.65;;;;;;;;;;5009428;28;20033;-56
2021/03/29 12:55:29;;;;;;;11.18;3.33;;;;;;;;;;5007810;28;20104;-56
2021/03/29 12:57:57;;;;;;;7.88;2.75;;;;;;;;;;5009153;28;20018;-56
2021/03/29 13:00:27;;;;;;;13.68;4.47;;;;;;;;;;5009935;28;20045;-56
2021/03/29 13:02:55;;;;;;;13.80;4.22;;;;;;;;;;5008810;28;20442;-56
2021/03/29 13:08:16;;;;;;;13.85;4.90;;;;;;;;;;4985580;28;20041;-57
2021/03/29 13:13:30;;;;;;;11.48;5.90;;;;;;;;;;5008307;28;20029;-57
2021/03/29 13:15:55;;;;;;;15.15;4.35;;;;;;;;;;5012649;28;20109;-58
2021/03/29 13:18:22;;;;;;;11.80;4.57;;;;;;;;;;5010586;28;20112;-57
2021/03/29 13:20:47;;;;;;;13.73;3.58;;;;;;;;;;5012627;28;20030;-55
2021/03/29 13:23:13;;;;;;;6.78;3.38;;;;;;;;;;5016855;28;20069;-56
2021/03/29 13:25:38;;;;;;;8.48;3.55;;;;;;;;;;5012437;28;20026;-56
2021/03/29 13:28:04;;;;;;;8.88;3.17;;;;;;;;;;5015948;28;20105;-56
2021/03/29 13:30:30;;;;;;;9.27;3.80;;;;;;;;;;5023653;28;20063;-56
2021/03/29 13:32:56;;;;;;;8.48;3.60;;;;;;;;;;5023961;28;20666;-57
2021/03/29 13:35:22;;;;;;;11.10;2.85;;;;;;;;;;5023420;28;20028;-55
2021/03/29 13:37:48;;;;;;;9.93;3.10;;;;;;;;;;5023032;28;20022;-55
2021/03/29 13:40:15;;;;;;;8.93;3.10;;;;;;;;;;5023638;28;20052;-56
2021/03/29 13:42:43;;;;;;;7.93;3.25;;;;;;;;;;5021390;28;20038;-57
2021/03/29 13:45:09;;;;;;;10.05;4.05;;;;;;;;;;5023590;28;20079;-55
2021/03/29 13:47:35;;;;;;;11.00;3.67;;;;;;;;;;5024690;28;20112;-54
2021/03/29 13:50:01;;;;;;;10.80;3.20;;;;;;;;;;5020710;28;20426;-56
2021/03/29 13:52:26;;;;;;;9.30;3.58;;;;;;;;;;5006494;28;20126;-56
2021/03/29 13:54:52;;;;;;;8.85;3.38;;;;;;;;;;5022764;28;21617;-56
2021/03/29 13:57:17;;;;;;;11.23;3.63;;;;;;;;;;5022639;28;20033;-56
2021/03/29 13:59:42;;;;;;;9.05;3.50;;;;;;;;;;5014586;28;20042;-55
2021/03/29 14:02:09;;;;;;;7.43;3.05;;;;;;;;;;5012548;28;20033;-56
2021/03/29 14:04:35;;;;;;;9.15;3.65;;;;;;;;;;5012299;28;20061;-54
2021/03/29 14:07:00;;;;;;;13.38;3.20;;;;;;;;;;5011947;28;20423;-55
2021/03/29 14:09:26;;;;;;;8.23;3.13;;;;;;;;;;5012669;28;20117;-55
2021/03/29 14:11:53;;;;;;;6.28;3.13;;;;;;;;;;5010663;28;20053;-55
2021/03/29 14:14:20;;;;;;;6.20;2.55;;;;;;;;;;5012570;28;20478;-55
2021/03/29 14:16:45;;;;;;;9.60;3.63;;;;;;;;;;5010264;28;20093;-55
2021/03/29 14:19:11;;;;;;;6.30;3.35;;;;;;;;;;5012042;28;20108;-55
2021/03/29 14:21:39;;;;;;;12.10;3.13;;;;;;;;;;5012316;28;20041;-55
2021/03/29 14:24:05;;;;;;;5.15;3.17;;;;;;;;;;5010946;28;20030;-56
2021/03/29 14:26:30;;;;;;;11.45;2.80;;;;;;;;;;5011404;28;20497;-56
2021/03/29 14:28:56;;;;;;;7.90;3.10;;;;;;;;;;5017213;28;20025;-56
2021/03/29 14:31:22;;;;;;;8.35;2.55;;;;;;;;;;5022026;28;20033;-54
2021/03/29 14:33:48;;;;;;;13.68;4.60;;;;;;;;;;5020881;28;20475;-54
2021/03/29 14:44:04;;;;;;;13.65;3.03;;;;;;;;;;5011109;28;20461;-55
2021/03/29 14:46:29;;;;;;;9.18;3.60;;;;;;;;;;5010051;28;20030;-55
2021/03/29 14:48:54;;;;;;;20.38;2.80;;;;;;;;;;5010976;28;20041;-55
2021/03/29 14:51:20;;;;;;;10.63;3.15;;;;;;;;;;5010369;28;20104;-54
2021/03/29 14:53:45;;;;;;;6.65;2.45;;;;;;;;;;5009588;28;20033;-55
2021/03/29 14:56:11;;;;;;;8.25;3.20;;;;;;;;;;5011379;28;20072;-53
2021/03/29 14:58:36;;;;;;;11.68;3.05;;;;;;;;;;5010141;28;20359;-55
2021/03/29 15:01:02;;;;;;;7.93;2.83;;;;;;;;;;5010425;28;20049;-54
2021/03/29 15:03:28;;;;;;;12.43;3.63;;;;;;;;;;5010232;28;20026;-54